Barhom II — 5IM534 — position and weather

sailwx.info

Track history (hours):
 
Tides and Currents Weather Stations Pressure Air Temp Water Temp Dewpoint Dewpoint Depression Visibility Wind Speed Wind Dir Waves Ship Positions

Barhom II

Last reported at 2014-Jul-25 10:33 UTC. Time now 2014-Jul-25 11:21 UTC.
Position N 41°05' E 001°15'.

Length 83 m; draft 4.2 m.

Type: Ship (hazmat cat A). MMSI: 677043400.

Date/timePositionNaut miles runAvg speedWind from/ knotsBaromVisibWave heightAir tempDewpointWater temp
2014-Jul-25 10:33N 41°05' E 001°15'0 0.0
2014-Jul-25 09:26N 41°05' E 001°15'0 0.0
2014-Jul-25 08:28N 41°05' E 001°15'0 0.0
2014-Jul-25 07:33N 41°05' E 001°15'0 0.0
2014-Jul-25 05:22N 41°05' E 001°15'0 0.0
2014-Jul-24 21:17N 41°05' E 001°15'0 0.0
2014-Jul-24 20:16N 41°05' E 001°15'0 0.1
2014-Jul-24 19:27N 41°05' E 001°15'0 0.0
2014-Jul-24 18:32N 41°05' E 001°15'0 0.0
2014-Jul-24 17:31N 41°05' E 001°15'0 0.0
2014-Jul-24 09:15N 41°06' E 001°15'0 0.0
2014-Jul-24 08:12N 41°06' E 001°15'0 0.0
2014-Jul-24 07:33N 41°06' E 001°15'0 0.0
2014-Jul-24 04:33N 41°06' E 001°15'0 0.0
2014-Jul-24 01:13N 41°06' E 001°15'0 0.0
2014-Jul-24 00:30N 41°06' E 001°15'0 0.0
2014-Jul-23 23:26N 41°06' E 001°15'0 0.0
2014-Jul-23 20:05N 41°06' E 001°15'0 0.0
2014-Jul-23 18:24N 41°06' E 001°15'0 0.0
2014-Jul-23 17:32N 41°06' E 001°15'0 0.0
2014-Jul-23 16:16N 41°06' E 001°15'0 0.0
2014-Jul-23 15:33N 41°06' E 001°15'0 0.0
2014-Jul-23 14:32N 41°06' E 001°15'0 0.0
2014-Jul-23 13:31N 41°06' E 001°15'0 0.0
2014-Jul-23 12:13N 41°06' E 001°15'0 0.1
2014-Jul-23 11:25N 41°05' E 001°15'0 0.0
2014-Jul-23 10:32N 41°05' E 001°15'0 0.0
2014-Jul-23 03:12N 41°05' E 001°15'0 0.0
2014-Jul-23 02:26N 41°06' E 001°15'0 0.0
2014-Jul-23 00:31N 41°06' E 001°15'0 0.0
2014-Jul-22 23:30N 41°06' E 001°15'0 0.1
2014-Jul-22 22:33N 41°05' E 001°15'6 5.9
2014-Jul-22 21:30N 40°59' E 001°13'1010.1
2014-Jul-22 20:29N 40°50' E 001°09'910.1
2014-Jul-22 19:33N 40°40' E 001°07'1010.0
2014-Jul-22 18:33N 40°30' E 001°07'10 9.9
2014-Jul-22 17:33N 40°20' E 001°08'10 9.9
2014-Jul-22 16:33N 40°10' E 001°07'10 9.7
2014-Jul-22 15:33N 40°01' E 001°07'1010.0
2014-Jul-22 14:30N 39°51' E 001°05'6310.3
2014-Jul-22 08:21N 38°49' E 000°48'1210.7
2014-Jul-22 07:15N 38°37' E 000°44'1010.3
2014-Jul-22 06:18N 38°31' E 000°35'1110.3
2014-Jul-22 05:15N 38°22' E 000°27'5 7.4
2014-Jul-22 04:33N 38°18' E 000°23'9 8.9
2014-Jul-22 03:31N 38°11' E 000°14'9 8.9
2014-Jul-22 02:33N 38°05' E 000°07'9 8.9
2014-Jul-22 01:33N 37°59' W 000°01'11 9.0
2014-Jul-22 00:20N 37°51' W 000°11'7 8.9
2014-Jul-21 23:29N 37°45' W 000°17'9 9.1
2014-Jul-21 22:32N 37°39' W 000°25'9 9.4
2014-Jul-21 21:33N 37°32' W 000°33'11 9.4
2014-Jul-21 20:20N 37°28' W 000°46'1 9.2
2014-Jul-21 20:11N 37°28' W 000°48'  
Track history (hours):
 
Tides and Currents Weather Stations Pressure Air Temp Water Temp Dewpoint Dewpoint Depression Visibility Wind Speed Wind Dir Waves Ship Positions

Barhom II

Last reported at 2014-Jul-25 10:33 UTC. Time now 2014-Jul-25 11:21 UTC.
Position N 41°05' E 001°15'.

Length 83 m; draft 4.2 m.

Type: Ship (hazmat cat A). MMSI: 677043400.

Date/timePositionNaut miles runAvg speedWind from/ knotsBaromVisibWave heightAir tempDewpointWater temp
2014-Jul-25 10:33N 41°05' E 001°15'0 0.0
2014-Jul-25 09:26N 41°05' E 001°15'0 0.0
2014-Jul-25 08:28N 41°05' E 001°15'0 0.0
2014-Jul-25 07:33N 41°05' E 001°15'0 0.0
2014-Jul-25 05:22N 41°05' E 001°15'0 0.0
2014-Jul-24 21:17N 41°05' E 001°15'0 0.0
2014-Jul-24 20:16N 41°05' E 001°15'0 0.1
2014-Jul-24 19:27N 41°05' E 001°15'0 0.0
2014-Jul-24 18:32N 41°05' E 001°15'0 0.0
2014-Jul-24 17:31N 41°05' E 001°15'0 0.0
2014-Jul-24 09:15N 41°06' E 001°15'0 0.0
2014-Jul-24 08:12N 41°06' E 001°15'0 0.0
2014-Jul-24 07:33N 41°06' E 001°15'0 0.0
2014-Jul-24 04:33N 41°06' E 001°15'0 0.0
2014-Jul-24 01:13N 41°06' E 001°15'0 0.0
2014-Jul-24 00:30N 41°06' E 001°15'0 0.0
2014-Jul-23 23:26N 41°06' E 001°15'0 0.0
2014-Jul-23 20:05N 41°06' E 001°15'0 0.0
2014-Jul-23 18:24N 41°06' E 001°15'0 0.0
2014-Jul-23 17:32N 41°06' E 001°15'0 0.0
2014-Jul-23 16:16N 41°06' E 001°15'0 0.0
2014-Jul-23 15:33N 41°06' E 001°15'0 0.0
2014-Jul-23 14:32N 41°06' E 001°15'0 0.0
2014-Jul-23 13:31N 41°06' E 001°15'0 0.0
2014-Jul-23 12:13N 41°06' E 001°15'0 0.1
2014-Jul-23 11:25N 41°05' E 001°15'0 0.0
2014-Jul-23 10:32N 41°05' E 001°15'0 0.0
2014-Jul-23 03:12N 41°05' E 001°15'0 0.0
2014-Jul-23 02:26N 41°06' E 001°15'0 0.0
2014-Jul-23 00:31N 41°06' E 001°15'0 0.0
2014-Jul-22 23:30N 41°06' E 001°15'0 0.1
2014-Jul-22 22:33N 41°05' E 001°15'6 5.9
2014-Jul-22 21:30N 40°59' E 001°13'1010.1
2014-Jul-22 20:29N 40°50' E 001°09'910.1
2014-Jul-22 19:33N 40°40' E 001°07'1010.0
2014-Jul-22 18:33N 40°30' E 001°07'10 9.9
2014-Jul-22 17:33N 40°20' E 001°08'10 9.9
2014-Jul-22 16:33N 40°10' E 001°07'10 9.7
2014-Jul-22 15:33N 40°01' E 001°07'1010.0
2014-Jul-22 14:30N 39°51' E 001°05'6310.3
2014-Jul-22 08:21N 38°49' E 000°48'1210.7
2014-Jul-22 07:15N 38°37' E 000°44'1010.3
2014-Jul-22 06:18N 38°31' E 000°35'1110.3
2014-Jul-22 05:15N 38°22' E 000°27'5 7.4
2014-Jul-22 04:33N 38°18' E 000°23'9 8.9
2014-Jul-22 03:31N 38°11' E 000°14'9 8.9
2014-Jul-22 02:33N 38°05' E 000°07'9 8.9
2014-Jul-22 01:33N 37°59' W 000°01'11 9.0
2014-Jul-22 00:20N 37°51' W 000°11'7 8.9
2014-Jul-21 23:29N 37°45' W 000°17'9 9.1
2014-Jul-21 22:32N 37°39' W 000°25'9 9.4
2014-Jul-21 21:33N 37°32' W 000°33'11 9.4
2014-Jul-21 20:20N 37°28' W 000°46'1 9.2
2014-Jul-21 20:11N 37°28' W 000°48'  

Dump ship's entire track history